Time;durP1;ratioP1;P1;durP2;ratioP2;P2;SDS_P1;SDS_P2;PMS_P1;PMS_P2;Temp;Humidity;BMP_temperature;BMP_pressure;BME280_temperature;BME280_humidity;BME280_pressure;Samples;Min_cycle;Max_cycle;Signal;HPM_P1;HPM_P2
2021/09/20 00:02:22;;;;;;;1.93;1.47;;;12.10;99.90;12.10;100836.00;;;;4976209;28;93791;-66
2021/09/20 00:04:48;;;;;;;3.00;2.07;;;12.30;99.90;12.10;100836.00;;;;4975286;28;92768;-66
2021/09/20 00:07:13;;;;;;;2.97;1.90;;;12.00;99.90;12.10;100837.00;;;;4975781;28;122846;-65
2021/09/20 00:09:39;;;;;;;2.47;1.63;;;12.10;99.90;12.10;100839.00;;;;4971769;28;122020;-65
2021/09/20 00:12:05;;;;;;;5.80;2.07;;;12.10;99.90;12.00;100836.00;;;;4975912;28;110034;-65
2021/09/20 00:14:31;;;;;;;5.13;1.70;;;12.00;99.90;12.00;100833.00;;;;4975757;28;92807;-65
2021/09/20 00:16:57;;;;;;;2.47;1.53;;;12.00;99.90;12.00;100829.00;;;;4973772;28;102215;-65
2021/09/20 00:19:23;;;;;;;4.63;1.63;;;12.00;99.90;12.00;100829.00;;;;4976269;28;93825;-65
2021/09/20 00:21:49;;;;;;;2.47;1.87;;;12.00;99.90;12.00;100832.00;;;;4976538;28;92874;-64
2021/09/20 00:24:15;;;;;;;3.60;1.90;;;12.00;99.90;12.00;100829.00;;;;4975246;28;109398;-64
2021/09/20 00:26:41;;;;;;;3.50;1.80;;;12.00;99.90;12.00;100828.00;;;;4975867;28;94873;-64
2021/09/20 00:29:07;;;;;;;6.27;2.20;;;12.00;99.90;12.00;100831.00;;;;4964406;28;107715;-66
2021/09/20 00:31:32;;;;;;;2.30;1.10;;;11.90;99.90;11.90;100834.00;;;;4976176;28;92876;-64
2021/09/20 00:33:58;;;;;;;1.73;1.37;;;11.90;99.90;11.90;100830.00;;;;4974991;28;102744;-64
2021/09/20 00:36:24;;;;;;;2.80;1.73;;;11.90;99.90;11.90;100834.00;;;;4975067;28;123538;-66
2021/09/20 00:38:49;;;;;;;3.43;1.77;;;11.90;99.90;11.90;100827.00;;;;4975679;28;93216;-65
2021/09/20 00:41:15;;;;;;;5.80;1.63;;;11.90;99.90;11.90;100833.00;;;;4962580;28;108026;-65
2021/09/20 00:43:41;;;;;;;3.93;1.90;;;11.90;99.90;11.90;100830.00;;;;4974984;28;95026;-64
2021/09/20 00:46:08;;;;;;;6.67;1.53;;;11.90;99.90;11.90;100827.00;;;;4973412;28;123724;-65
2021/09/20 00:48:34;;;;;;;1.67;1.50;;;11.90;99.90;11.90;100822.00;;;;4974947;28;93416;-65
2021/09/20 00:51:00;;;;;;;4.00;1.63;;;11.90;99.90;11.90;100819.00;;;;4975635;28;93996;-64
2021/09/20 00:53:26;;;;;;;2.00;1.60;;;11.90;99.90;11.90;100828.00;;;;4975007;28;92950;-63
2021/09/20 00:55:52;;;;;;;2.77;1.97;;;11.90;99.90;11.90;100826.00;;;;4975755;28;93604;-64
2021/09/20 00:58:18;;;;;;;5.10;2.67;;;11.90;99.90;11.90;100827.00;;;;4974426;28;112705;-63
2021/09/20 01:00:44;;;;;;;2.90;1.90;;;11.90;99.90;11.90;100822.00;;;;4974746;28;110463;-64
2021/09/20 01:03:09;;;;;;;2.33;1.50;;;11.90;99.90;11.90;100826.00;;;;4974771;28;108799;-64
2021/09/20 01:05:35;;;;;;;2.50;2.03;;;11.90;99.90;11.90;100825.00;;;;4975068;28;93439;-64
2021/09/20 01:08:01;;;;;;;1.90;1.70;;;11.80;99.90;11.90;100828.00;;;;4975224;28;93772;-64
2021/09/20 01:10:27;;;;;;;2.33;1.77;;;11.80;99.90;11.80;100816.00;;;;4975092;28;110668;-64
2021/09/20 01:12:52;;;;;;;12.07;1.77;;;11.80;99.90;11.90;100815.00;;;;4975143;28;94406;-64
2021/09/20 01:15:18;;;;;;;2.30;1.70;;;11.80;99.90;11.80;100824.00;;;;4973003;28;113008;-64
2021/09/20 01:17:44;;;;;;;3.30;1.53;;;11.80;99.90;11.80;100813.00;;;;4974058;28;113773;-64
2021/09/20 01:20:12;;;;;;;1.50;1.30;;;11.80;99.90;11.80;100820.00;;;;4974803;28;109263;-64
2021/09/20 01:22:38;;;;;;;2.13;1.50;;;11.80;99.90;11.80;100819.00;;;;4975627;28;92831;-64
2021/09/20 01:25:07;;;;;;;2.13;1.93;;;11.80;99.90;11.80;100829.00;;;;4974970;28;94741;-64
2021/09/20 01:27:33;;;;;;;2.30;1.60;;;11.80;99.90;11.80;100825.00;;;;4974088;28;92723;-64
2021/09/20 01:29:59;;;;;;;1.80;1.50;;;11.80;99.90;11.80;100820.00;;;;4975381;28;93070;-63
2021/09/20 01:32:25;;;;;;;1.50;1.37;;;11.80;99.90;11.80;100817.00;;;;4968437;28;92047;-63
2021/09/20 01:34:51;;;;;;;2.00;1.40;;;11.80;99.90;11.80;100817.00;;;;4974231;28;109130;-63
2021/09/20 01:37:17;;;;;;;1.40;1.30;;;11.80;99.90;11.80;100826.00;;;;4973844;28;117888;-64
2021/09/20 01:39:42;;;;;;;1.90;1.70;;;11.80;99.90;11.80;100832.00;;;;4973524;28;111361;-64
2021/09/20 01:42:08;;;;;;;1.50;1.40;;;11.80;99.90;11.70;100825.00;;;;4974225;28;109498;-64
2021/09/20 01:44:36;;;;;;;2.10;1.87;;;11.70;99.90;11.80;100828.00;;;;4972971;28;92831;-64
2021/09/20 01:47:03;;;;;;;3.80;2.07;;;11.70;99.90;11.70;100823.00;;;;4975323;28;93102;-64
2021/09/20 01:49:29;;;;;;;1.77;1.37;;;11.70;99.90;11.70;100825.00;;;;4974712;28;92990;-64
2021/09/20 01:51:57;;;;;;;1.93;1.50;;;11.70;99.90;11.70;100843.00;;;;4974728;28;92906;-65
2021/09/20 01:54:24;;;;;;;2.90;1.40;;;11.70;99.90;11.70;100824.00;;;;4974020;28;93292;-64
2021/09/20 01:56:50;;;;;;;2.13;1.70;;;11.70;99.90;11.70;100824.00;;;;4974872;28;100665;-64
2021/09/20 01:59:15;;;;;;;2.00;1.67;;;11.70;99.90;11.70;100826.00;;;;4974450;28;92642;-64
2021/09/20 02:01:41;;;;;;;3.03;1.73;;;11.70;99.90;11.70;100828.00;;;;4974838;28;92978;-65
2021/09/20 02:04:07;;;;;;;2.33;1.57;;;11.70;99.90;11.70;100832.00;;;;4973018;28;97193;-64
2021/09/20 02:06:33;;;;;;;4.37;1.80;;;11.70;99.90;11.60;100828.00;;;;4973595;28;123917;-64
2021/09/20 02:08:59;;;;;;;2.00;1.37;;;11.60;99.90;11.60;100829.00;;;;4973820;28;93453;-65
2021/09/20 02:11:25;;;;;;;2.13;1.70;;;11.70;99.90;11.60;100830.00;;;;4973938;28;109428;-64
2021/09/20 02:13:53;;;;;;;2.57;2.00;;;11.60;99.90;11.60;100831.00;;;;4973684;28;93741;-65
2021/09/20 02:16:20;;;;;;;2.40;1.80;;;11.60;99.90;11.60;100829.00;;;;4974159;28;93187;-65
2021/09/20 02:18:46;;;;;;;1.90;1.70;;;11.60;99.90;11.60;100843.00;;;;4974735;28;92779;-64
2021/09/20 02:21:13;;;;;;;3.13;1.80;;;11.60;99.90;11.60;100837.00;;;;4974862;28;92124;-64
2021/09/20 02:23:39;;;;;;;2.00;1.47;;;11.60;99.90;11.60;100834.00;;;;4973165;28;94150;-65
2021/09/20 02:26:05;;;;;;;2.00;1.60;;;11.60;99.90;11.60;100838.00;;;;4973675;28;103043;-64
2021/09/20 02:28:31;;;;;;;4.13;1.80;;;11.60;99.90;11.60;100846.00;;;;4972624;28;102162;-63
2021/09/20 02:30:57;;;;;;;1.83;1.50;;;11.60;99.90;11.60;100837.00;;;;4974877;28;92867;-63
2021/09/20 02:33:23;;;;;;;2.07;1.50;;;11.60;99.90;11.60;100846.00;;;;4972386;28;123005;-64
2021/09/20 02:35:49;;;;;;;3.37;2.03;;;11.60;99.90;11.50;100835.00;;;;4973036;28;123585;-64
2021/09/20 02:38:15;;;;;;;3.33;1.50;;;11.60;99.90;11.50;100834.00;;;;4973371;28;104268;-65
2021/09/20 02:40:41;;;;;;;4.23;1.37;;;11.50;99.90;11.50;100830.00;;;;4974135;28;92691;-66
2021/09/20 02:43:07;;;;;;;2.60;1.50;;;11.50;99.90;11.50;100839.00;;;;4973294;28;92871;-66
2021/09/20 02:45:33;;;;;;;2.60;1.67;;;11.50;99.90;11.50;100847.00;;;;4973795;28;117848;-65
2021/09/20 02:47:59;;;;;;;1.47;1.37;;;11.50;99.90;11.50;100843.00;;;;4973140;28;92758;-65
2021/09/20 02:50:25;;;;;;;2.63;1.67;;;11.50;99.90;11.50;100839.00;;;;4973496;28;101569;-64
2021/09/20 02:52:50;;;;;;;4.60;2.30;;;11.50;99.90;11.50;100844.00;;;;4971747;28;123718;-65
2021/09/20 02:55:16;;;;;;;2.00;1.27;;;11.50;99.90;11.50;100847.00;;;;4975931;28;124076;-65
2021/09/20 02:57:42;;;;;;;1.77;1.37;;;11.50;99.90;11.40;100851.00;;;;4972857;28;109132;-67
2021/09/20 03:00:10;;;;;;;1.57;1.40;;;11.40;99.90;11.40;100854.00;;;;4973493;28;92888;-65
2021/09/20 03:02:37;;;;;;;2.27;1.67;;;11.50;99.90;11.40;100854.00;;;;4971448;28;101710;-65
2021/09/20 03:05:04;;;;;;;3.27;2.10;;;11.40;99.90;11.40;100854.00;;;;4973051;28;94835;-65
2021/09/20 03:07:29;;;;;;;1.73;1.10;;;11.40;99.90;11.40;100850.00;;;;4974175;28;92947;-65
2021/09/20 03:09:55;;;;;;;2.03;1.50;;;11.40;99.90;11.40;100852.00;;;;4972501;28;109746;-65
2021/09/20 03:12:21;;;;;;;3.87;1.80;;;11.40;99.90;11.40;100855.00;;;;4987749;28;96651;-65
2021/09/20 03:14:47;;;;;;;3.43;1.60;;;11.40;99.90;11.40;100857.00;;;;4972299;28;108593;-65
2021/09/20 03:17:12;;;;;;;4.27;2.10;;;11.40;99.90;11.40;100861.00;;;;4972672;28;106448;-65
2021/09/20 03:19:39;;;;;;;4.47;1.97;;;11.40;99.90;11.40;100853.00;;;;4971850;28;105878;-65
2021/09/20 03:22:05;;;;;;;2.87;1.80;;;11.40;99.90;11.40;100867.00;;;;4973661;28;93866;-65
2021/09/20 03:24:31;;;;;;;2.53;1.60;;;11.40;99.90;11.40;100864.00;;;;4971083;28;121100;-65
2021/09/20 03:26:57;;;;;;;3.53;1.90;;;11.40;99.90;11.40;100857.00;;;;4972380;28;109845;-65
2021/09/20 03:29:22;;;;;;;1.93;1.40;;;11.40;99.90;11.40;100865.00;;;;4965556;28;108715;-65
2021/09/20 03:31:49;;;;;;;1.80;1.20;;;11.40;99.90;11.40;100868.00;;;;4971957;28;123580;-65
2021/09/20 03:34:15;;;;;;;1.30;1.20;;;11.40;99.90;11.40;100864.00;;;;4973155;28;93163;-64
2021/09/20 03:36:41;;;;;;;3.33;1.43;;;11.30;99.90;11.40;100869.00;;;;4972863;28;92927;-65
2021/09/20 03:39:07;;;;;;;4.10;1.50;;;11.40;99.90;11.30;100861.00;;;;4973110;28;92693;-65
2021/09/20 03:41:33;;;;;;;2.87;1.80;;;11.40;99.90;11.40;100870.00;;;;4971722;28;103057;-65
2021/09/20 03:43:59;;;;;;;1.83;1.47;;;11.40;99.90;11.30;100865.00;;;;4972212;28;94383;-66
2021/09/20 03:46:25;;;;;;;2.90;1.60;;;11.30;99.90;11.40;100874.00;;;;4972692;28;93600;-65
2021/09/20 03:48:51;;;;;;;3.97;1.50;;;11.40;99.90;11.30;100872.00;;;;4973314;28;92871;-65
2021/09/20 03:51:17;;;;;;;3.13;1.50;;;11.30;99.90;11.30;100870.00;;;;4973185;28;93371;-65
2021/09/20 03:53:43;;;;;;;2.90;1.80;;;11.30;99.90;11.30;100870.00;;;;4971316;28;124136;-65
2021/09/20 03:56:10;;;;;;;2.60;1.50;;;11.30;99.90;11.30;100874.00;;;;4973056;28;92897;-65
2021/09/20 03:58:36;;;;;;;1.53;1.43;;;11.30;99.90;11.30;100872.00;;;;4959051;28;92616;-65
2021/09/20 04:01:03;;;;;;;2.13;1.50;;;11.30;99.90;11.30;100880.00;;;;4972178;28;93214;-64
2021/09/20 04:03:29;;;;;;;2.27;1.53;;;11.40;99.90;11.30;100877.00;;;;4972363;28;93091;-64
2021/09/20 04:05:55;;;;;;;3.60;1.67;;;11.30;99.90;11.30;100887.00;;;;4972668;28;93662;-65
2021/09/20 04:08:27;;;;;;;1.97;1.40;;;11.30;99.90;11.20;100884.00;;;;4973009;28;92895;-65
2021/09/20 04:10:53;;;;;;;2.27;1.50;;;11.20;99.90;11.20;100886.00;;;;4972683;28;94147;-65
2021/09/20 04:13:19;;;;;;;3.30;1.10;;;11.20;99.90;11.20;100879.00;;;;4971495;28;100319;-65
2021/09/20 04:15:44;;;;;;;1.67;1.50;;;11.30;99.90;11.20;100883.00;;;;4972039;28;111478;-65
2021/09/20 04:18:10;;;;;;;3.93;1.97;;;11.20;99.90;11.20;100882.00;;;;4971730;28;109111;-65
2021/09/20 04:20:36;;;;;;;3.37;1.60;;;11.20;99.90;11.20;100888.00;;;;4971514;28;123968;-64
2021/09/20 04:23:01;;;;;;;2.70;1.93;;;11.20;99.90;11.20;100899.00;;;;4975563;28;122573;-64
2021/09/20 04:25:27;;;;;;;1.53;1.13;;;11.20;99.90;11.20;100899.00;;;;4972233;28;103777;-64
2021/09/20 04:27:53;;;;;;;2.57;1.70;;;11.20;99.90;11.20;100895.00;;;;4976500;28;92695;-63
2021/09/20 04:30:20;;;;;;;3.43;1.97;;;11.20;99.90;11.20;100893.00;;;;4975474;28;93546;-64
2021/09/20 04:32:46;;;;;;;2.73;1.53;;;11.20;99.90;11.10;100900.00;;;;4974571;28;94486;-64
2021/09/20 04:35:12;;;;;;;2.40;2.03;;;11.20;99.90;11.10;100894.00;;;;4975758;28;93139;-64
2021/09/20 04:37:38;;;;;;;1.93;1.50;;;11.10;99.90;11.10;100897.00;;;;4974746;28;101298;-64
2021/09/20 04:40:05;;;;;;;2.63;1.90;;;11.10;99.90;11.10;100898.00;;;;4975413;28;95690;-63
2021/09/20 04:42:31;;;;;;;11.23;5.40;;;11.10;99.90;11.10;100905.00;;;;4973632;28;101753;-64
2021/09/20 04:44:57;;;;;;;23.10;10.93;;;11.10;99.90;11.10;100911.00;;;;4975582;28;92961;-63
2021/09/20 04:47:23;;;;;;;21.90;9.40;;;11.10;99.90;11.10;100914.00;;;;4975364;28;92141;-64
2021/09/20 04:49:48;;;;;;;13.10;6.27;;;11.10;99.90;11.10;100918.00;;;;4974586;28;123738;-64
2021/09/20 04:52:14;;;;;;;7.63;5.17;;;11.10;99.90;11.00;100915.00;;;;4974122;28;92934;-63
2021/09/20 04:54:40;;;;;;;5.67;2.70;;;11.10;99.90;11.00;100921.00;;;;4977748;28;110755;-63
2021/09/20 04:57:05;;;;;;;3.77;2.40;;;11.00;99.90;11.00;100929.00;;;;4977484;28;108165;-65
2021/09/20 04:59:31;;;;;;;3.03;1.50;;;11.10;99.90;11.00;100927.00;;;;4982791;27;122978;-65
2021/09/20 05:01:57;;;;;;;3.10;1.90;;;11.00;99.90;11.00;100933.00;;;;4984117;28;118123;-63
2021/09/20 05:04:22;;;;;;;2.53;1.83;;;11.10;99.90;11.00;100938.00;;;;4983440;27;108393;-63
2021/09/20 05:06:48;;;;;;;2.10;1.87;;;11.00;99.90;11.00;100939.00;;;;4989287;28;109928;-63
2021/09/20 05:09:14;;;;;;;1.43;1.33;;;11.00;99.90;11.00;100944.00;;;;4981049;28;109348;-64
2021/09/20 05:11:39;;;;;;;2.97;1.50;;;11.00;99.90;11.00;100934.00;;;;4991201;28;122960;-64
2021/09/20 05:14:06;;;;;;;6.97;1.97;;;11.10;99.90;11.00;100935.00;;;;4991553;27;92905;-63
2021/09/20 05:16:31;;;;;;;1.80;1.63;;;11.00;99.90;11.00;100941.00;;;;4991759;28;109312;-63
2021/09/20 05:18:57;;;;;;;4.83;1.60;;;11.00;99.90;11.00;100938.00;;;;4981886;28;94843;-64
2021/09/20 05:21:24;;;;;;;1.73;1.40;;;11.00;99.90;11.00;100944.00;;;;4974965;28;94603;-64
2021/09/20 05:23:50;;;;;;;3.40;1.83;;;11.00;99.90;11.00;100949.00;;;;4974920;28;93071;-64
2021/09/20 05:26:18;;;;;;;2.70;1.67;;;11.00;99.90;11.00;100943.00;;;;4974990;28;97130;-64
2021/09/20 05:28:44;;;;;;;2.07;1.70;;;11.00;99.90;11.00;100942.00;;;;4974814;28;93828;-64
2021/09/20 05:31:10;;;;;;;1.97;1.70;;;11.10;99.90;11.10;100951.00;;;;4974804;28;92891;-63
2021/09/20 05:33:36;;;;;;;2.87;1.70;;;11.00;99.90;11.10;100950.00;;;;4974538;28;92620;-63
2021/09/20 05:36:06;;;;;;;3.43;1.83;;;11.10;99.90;11.00;100961.00;;;;4975592;28;91977;-65
2021/09/20 05:38:33;;;;;;;3.00;1.97;;;11.10;99.90;11.10;100943.00;;;;4973697;28;99015;-64
2021/09/20 05:40:58;;;;;;;3.53;1.60;;;11.10;99.90;11.10;100949.00;;;;4974654;28;93593;-64
2021/09/20 05:43:25;;;;;;;2.40;1.53;;;11.10;99.90;11.10;100952.00;;;;4973957;28;94578;-64
2021/09/20 05:45:51;;;;;;;4.97;2.40;;;11.10;99.90;11.10;100963.00;;;;4975236;28;93066;-65
2021/09/20 05:48:18;;;;;;;2.03;1.53;;;11.10;99.90;11.10;100964.00;;;;4973906;28;93353;-65
2021/09/20 05:50:45;;;;;;;3.17;1.40;;;11.10;99.90;11.10;100966.00;;;;4974617;28;93682;-64
2021/09/20 05:53:12;;;;;;;2.60;1.50;;;11.10;99.90;11.10;100967.00;;;;4974716;28;92771;-64
2021/09/20 05:55:38;;;;;;;2.43;1.87;;;11.10;99.90;11.10;100973.00;;;;4974152;28;93147;-65
2021/09/20 05:58:04;;;;;;;5.10;1.77;;;11.10;99.90;11.10;100965.00;;;;4974521;28;104870;-64
2021/09/20 06:00:30;;;;;;;4.57;1.67;;;11.20;99.90;11.10;100977.00;;;;4974789;28;93143;-64
2021/09/20 06:02:55;;;;;;;3.37;1.60;;;11.10;99.90;11.10;100973.00;;;;4974075;28;96768;-64
2021/09/20 06:05:21;;;;;;;3.57;1.77;;;11.20;99.90;11.10;100973.00;;;;4974357;28;92985;-64
2021/09/20 06:07:47;;;;;;;2.60;1.70;;;11.20;99.90;11.20;100974.00;;;;4972002;28;123123;-65
2021/09/20 06:10:16;;;;;;;4.07;1.43;;;11.20;99.90;11.20;100976.00;;;;4973230;28;122615;-66
2021/09/20 06:12:42;;;;;;;2.40;1.47;;;11.20;99.90;11.20;100986.00;;;;4974414;28;92841;-64
2021/09/20 06:15:10;;;;;;;2.00;1.40;;;11.20;99.90;11.20;100985.00;;;;4974704;28;92820;-64
2021/09/20 06:17:36;;;;;;;2.20;1.63;;;11.20;99.90;11.20;100980.00;;;;4971728;28;93772;-66
2021/09/20 06:20:05;;;;;;;2.30;1.63;;;11.20;99.90;11.30;100986.00;;;;4973859;28;92817;-66
2021/09/20 06:22:31;;;;;;;3.17;2.00;;;11.30;99.90;11.30;100985.00;;;;4974053;28;92676;-65
2021/09/20 06:24:59;;;;;;;2.37;1.70;;;11.30;99.90;11.30;100977.00;;;;4973461;28;92180;-64
2021/09/20 06:27:26;;;;;;;1.87;1.60;;;11.30;99.90;11.30;100985.00;;;;4974162;28;94120;-64
2021/09/20 06:29:52;;;;;;;2.97;1.93;;;11.30;99.90;11.40;100984.00;;;;4973183;28;93446;-65
2021/09/20 06:32:17;;;;;;;6.73;2.60;;;11.30;99.90;11.40;100983.00;;;;4972638;28;93854;-66
2021/09/20 06:34:43;;;;;;;2.77;1.90;;;11.40;99.90;11.40;100978.00;;;;4965557;28;108711;-65
2021/09/20 06:37:09;;;;;;;3.10;2.07;;;11.40;99.90;11.40;100994.00;;;;4972387;28;123617;-65
2021/09/20 06:39:34;;;;;;;3.90;1.90;;;11.40;99.90;11.40;100990.00;;;;4973233;28;94716;-66
2021/09/20 06:42:02;;;;;;;5.40;2.00;;;11.40;99.90;11.50;100990.00;;;;4972718;28;109525;-66
2021/09/20 06:44:28;;;;;;;2.07;1.13;;;11.50;99.90;11.50;100976.00;;;;4970481;28;92889;-63
2021/09/20 06:46:55;;;;;;;2.17;1.43;;;11.50;99.90;11.50;100988.00;;;;4973699;28;95906;-66
2021/09/20 06:49:22;;;;;;;3.20;2.20;;;11.50;99.90;11.50;100985.00;;;;4973360;28;92334;-65
2021/09/20 06:51:50;;;;;;;3.90;2.10;;;11.50;99.90;11.60;100990.00;;;;4971800;28;93293;-63
2021/09/20 06:54:18;;;;;;;4.53;1.73;;;11.50;99.90;11.60;100987.00;;;;4973518;28;93013;-64
2021/09/20 06:56:44;;;;;;;2.17;1.33;;;11.60;99.90;11.70;100996.00;;;;4972960;28;94091;-64
2021/09/20 06:59:09;;;;;;;4.10;2.03;;;11.60;99.90;11.70;100986.00;;;;4973280;28;97346;-63
2021/09/20 07:01:35;;;;;;;3.50;1.77;;;11.60;99.90;11.70;100998.00;;;;4973607;28;92904;-65
2021/09/20 07:04:01;;;;;;;6.67;2.30;;;11.70;99.90;11.70;100998.00;;;;4973280;28;107976;-66
2021/09/20 07:06:27;;;;;;;4.67;2.67;;;11.70;99.90;11.80;100993.00;;;;4972675;28;93043;-66
2021/09/20 07:08:52;;;;;;;5.23;2.23;;;11.70;99.90;11.80;101000.00;;;;4972939;28;93416;-66
2021/09/20 07:11:18;;;;;;;1.93;1.80;;;11.80;99.90;11.90;100993.00;;;;4972298;28;104294;-65
2021/09/20 07:13:44;;;;;;;4.87;2.57;;;11.80;99.90;11.90;101006.00;;;;4973448;28;92077;-65
2021/09/20 07:16:10;;;;;;;2.73;1.80;;;12.00;99.90;11.90;101007.00;;;;4972661;28;100757;-65
2021/09/20 07:18:36;;;;;;;4.27;2.13;;;11.90;99.90;12.00;101003.00;;;;4972665;28;95786;-64
2021/09/20 07:21:03;;;;;;;5.23;2.30;;;11.90;99.90;12.00;101001.00;;;;4973375;28;93717;-66
2021/09/20 07:23:28;;;;;;;2.63;2.13;;;12.00;99.90;12.00;101020.00;;;;4970071;28;93029;-65
2021/09/20 07:25:54;;;;;;;4.70;2.07;;;12.00;99.90;12.10;101017.00;;;;4972250;28;123544;-65
2021/09/20 07:28:20;;;;;;;3.03;1.60;;;12.00;99.90;12.10;101018.00;;;;4971627;28;123547;-67
2021/09/20 07:30:45;;;;;;;4.20;2.13;;;12.10;99.90;12.10;101025.00;;;;4973023;28;92730;-66
2021/09/20 07:33:11;;;;;;;3.80;2.17;;;12.10;99.90;12.20;101022.00;;;;4973197;28;92821;-66
2021/09/20 07:35:37;;;;;;;2.57;1.73;;;12.10;99.90;12.20;101022.00;;;;4972815;28;92754;-66
2021/09/20 07:38:03;;;;;;;4.27;2.10;;;12.20;99.90;12.20;101023.00;;;;4972242;28;122173;-66
2021/09/20 07:40:30;;;;;;;3.43;1.97;;;12.20;99.90;12.30;101037.00;;;;4973388;28;92720;-65
2021/09/20 07:42:58;;;;;;;2.93;1.73;;;12.30;99.90;12.30;101035.00;;;;4966784;28;92833;-66
2021/09/20 07:45:26;;;;;;;1.70;1.60;;;12.30;99.90;12.40;101044.00;;;;4969090;28;94045;-66
2021/09/20 07:47:52;;;;;;;2.33;1.90;;;12.30;99.90;12.40;101048.00;;;;4965551;28;94417;-65
2021/09/20 07:50:20;;;;;;;1.90;1.33;;;12.40;99.90;12.50;101048.00;;;;4970308;28;92755;-66
2021/09/20 07:52:47;;;;;;;8.00;2.77;;;12.40;99.90;12.50;101046.00;;;;4972899;28;92818;-66
2021/09/20 07:55:14;;;;;;;6.20;2.13;;;12.50;99.90;12.60;101045.00;;;;4973718;28;93949;-66
2021/09/20 07:57:40;;;;;;;5.43;2.03;;;12.50;99.90;12.60;101054.00;;;;4976421;28;93020;-66
2021/09/20 08:00:11;;;;;;;2.77;2.03;;;12.50;99.90;12.70;101054.00;;;;4958322;28;93089;-65
2021/09/20 08:02:37;;;;;;;1.73;1.63;;;12.60;99.90;12.70;101039.00;;;;4977075;28;92394;-65
2021/09/20 08:05:03;;;;;;;2.57;2.33;;;12.60;99.90;12.70;101048.00;;;;4976165;28;92767;-65
2021/09/20 08:07:29;;;;;;;6.70;2.37;;;12.60;99.90;12.80;101048.00;;;;4975447;28;94739;-65
2021/09/20 08:09:55;;;;;;;4.67;2.60;;;12.70;99.90;12.80;101057.00;;;;4975294;28;101463;-66
2021/09/20 08:12:21;;;;;;;5.73;2.63;;;12.70;99.90;12.90;101058.00;;;;4975739;28;108500;-65
2021/09/20 08:14:47;;;;;;;3.50;2.43;;;12.80;99.90;12.90;101068.00;;;;4975142;28;121215;-65
2021/09/20 08:17:12;;;;;;;2.20;1.87;;;12.80;99.90;12.90;101063.00;;;;4975287;28;110694;-65
2021/09/20 08:19:39;;;;;;;3.63;2.23;;;12.90;99.90;13.00;101059.00;;;;4974914;28;110432;-65
2021/09/20 08:22:05;;;;;;;2.33;1.70;;;12.90;99.90;13.00;101053.00;;;;4976287;28;93099;-65
2021/09/20 08:24:31;;;;;;;5.47;2.03;;;12.90;99.90;13.00;101055.00;;;;4975362;28;92911;-64
2021/09/20 08:26:57;;;;;;;4.60;2.03;;;12.90;99.90;13.00;101063.00;;;;4976471;28;92996;-65
2021/09/20 08:29:22;;;;;;;5.20;2.60;;;13.00;99.90;13.10;101065.00;;;;4974780;28;109808;-65
2021/09/20 08:31:49;;;;;;;7.27;2.43;;;13.00;99.90;13.10;101068.00;;;;4976152;28;92771;-65
2021/09/20 08:34:16;;;;;;;3.30;1.93;;;13.00;99.90;13.10;101066.00;;;;4974730;28;94697;-65
2021/09/20 08:36:42;;;;;;;3.67;2.43;;;13.00;99.90;13.10;101080.00;;;;4975391;28;94421;-64
2021/09/20 08:39:08;;;;;;;2.70;2.30;;;13.00;99.90;13.20;101073.00;;;;4974440;28;111294;-65
2021/09/20 08:41:36;;;;;;;4.90;2.20;;;13.00;99.90;13.20;101076.00;;;;4975436;28;95315;-65
2021/09/20 08:44:02;;;;;;;5.53;2.27;;;13.10;99.90;13.20;101087.00;;;;4945298;28;102934;-65
2021/09/20 08:46:28;;;;;;;3.63;2.13;;;13.10;99.90;13.30;101084.00;;;;4973604;28;93500;-65
2021/09/20 08:48:54;;;;;;;8.67;2.40;;;13.20;99.90;13.30;101083.00;;;;4957300;28;93171;-64
2021/09/20 08:51:20;;;;;;;2.23;1.57;;;13.20;99.90;13.40;101077.00;;;;4976508;28;91921;-64
2021/09/20 08:53:47;;;;;;;2.83;2.50;;;13.30;99.90;13.40;101077.00;;;;4966589;28;93682;-64
2021/09/20 08:56:14;;;;;;;4.43;2.57;;;13.30;99.90;13.40;101075.00;;;;4975703;28;93117;-64
2021/09/20 08:58:40;;;;;;;2.90;2.10;;;13.30;99.90;13.40;101083.00;;;;4974698;28;95217;-65
2021/09/20 09:01:07;;;;;;;2.20;1.93;;;13.30;99.90;13.50;101082.00;;;;4974904;28;107655;-65
2021/09/20 09:03:33;;;;;;;5.07;2.53;;;13.30;99.90;13.50;101096.00;;;;4966131;28;107580;-64
2021/09/20 09:06:00;;;;;;;3.47;2.23;;;13.40;99.90;13.60;101086.00;;;;4973605;28;122351;-64
2021/09/20 09:08:39;;;;;;;2.47;1.90;;;13.50;99.90;13.60;101093.00;;;;4974445;28;92818;-63
2021/09/20 09:11:12;;;;;;;3.57;2.77;;;13.50;99.90;13.60;101090.00;;;;4973860;28;93040;-63
2021/09/20 09:13:47;;;;;;;3.70;1.90;;;13.50;99.90;13.60;101101.00;;;;4974249;28;92871;-64
2021/09/20 09:16:23;;;;;;;3.20;1.97;;;13.60;99.90;13.70;101101.00;;;;4975075;28;105144;-64
2021/09/20 09:19:08;;;;;;;2.83;2.00;;;13.60;99.90;13.80;101106.00;;;;4974758;28;93067;-65
2021/09/20 09:21:43;;;;;;;2.70;1.83;;;13.60;99.90;13.90;101099.00;;;;4975550;28;92662;-65
2021/09/20 09:24:20;;;;;;;3.20;2.27;;;13.70;99.90;13.90;101103.00;;;;4947807;28;94418;-64
2021/09/20 09:27:01;;;;;;;2.33;2.10;;;13.80;99.90;14.00;101104.00;;;;4935847;28;93009;-64
2021/09/20 09:29:32;;;;;;;2.87;2.57;;;13.90;99.90;14.10;101102.00;;;;4935391;28;92945;-66
2021/09/20 09:32:01;;;;;;;2.03;1.67;;;13.90;99.90;14.10;101096.00;;;;4935944;28;93241;-65
2021/09/20 09:34:32;;;;;;;3.13;2.30;;;14.00;99.90;14.20;101113.00;;;;4934231;28;94190;-64
2021/09/20 09:37:13;;;;;;;6.57;2.20;;;14.00;99.90;14.20;101116.00;;;;4934910;28;105988;-64
2021/09/20 09:39:40;;;;;;;3.87;2.20;;;14.10;99.90;14.30;101102.00;;;;4933575;28;92897;-64
2021/09/20 09:42:24;;;;;;;3.00;2.40;;;14.20;99.90;14.40;101103.00;;;;4935568;28;92397;-63
2021/09/20 09:44:50;;;;;;;4.97;2.30;;;14.20;99.90;14.50;101102.00;;;;4933458;28;93057;-64
2021/09/20 09:47:29;;;;;;;3.10;2.00;;;14.30;99.90;14.60;101105.00;;;;4934655;28;93213;-64
2021/09/20 09:50:18;;;;;;;7.40;2.97;;;14.40;99.90;14.60;101109.00;;;;4934567;28;94156;-63
2021/09/20 09:52:47;;;;;;;4.63;2.50;;;14.50;99.90;14.60;101108.00;;;;4935210;28;93083;-64
2021/09/20 09:55:13;;;;;;;4.47;2.80;;;14.50;99.90;14.60;101115.00;;;;4934795;28;93131;-64
2021/09/20 09:57:40;;;;;;;3.70;2.43;;;14.50;99.90;14.60;101117.00;;;;4934305;28;92929;-65
2021/09/20 10:00:09;;;;;;;4.80;2.87;;;14.40;99.90;14.50;101113.00;;;;4935077;28;92967;-63
2021/09/20 10:02:38;;;;;;;3.23;2.80;;;14.40;99.90;14.50;101111.00;;;;4934715;28;93029;-64
2021/09/20 10:05:15;;;;;;;3.77;3.13;;;14.40;99.90;14.60;101120.00;;;;4934148;28;94359;-64
2021/09/20 10:07:47;;;;;;;6.50;2.70;;;14.40;99.90;14.60;101117.00;;;;4934478;28;93338;-64
2021/09/20 10:10:21;;;;;;;4.10;3.03;;;14.50;99.90;14.60;101122.00;;;;4935164;28;92813;-63
2021/09/20 10:12:50;;;;;;;4.87;2.23;;;14.50;99.90;14.70;101120.00;;;;4934750;28;92718;-64
2021/09/20 10:15:20;;;;;;;5.10;2.30;;;14.50;99.90;14.80;101122.00;;;;4933334;28;94999;-64
2021/09/20 10:17:47;;;;;;;3.60;2.57;;;14.60;99.90;14.90;101115.00;;;;4933770;28;94949;-64
2021/09/20 10:20:20;;;;;;;3.40;2.60;;;14.70;99.90;15.00;101114.00;;;;4934670;28;92961;-65
2021/09/20 10:22:46;;;;;;;3.67;2.53;;;14.80;99.90;15.10;101109.00;;;;4934479;28;92902;-64
2021/09/20 10:25:15;;;;;;;5.47;2.53;;;14.90;99.90;15.20;101117.00;;;;4958492;28;106873;-65
2021/09/20 10:27:41;;;;;;;4.53;2.83;;;15.00;99.90;15.30;101119.00;;;;4973829;28;92964;-65
2021/09/20 10:30:13;;;;;;;6.37;3.17;;;15.10;99.90;15.30;101110.00;;;;4972447;28;92839;-64
2021/09/20 10:32:44;;;;;;;3.03;2.65;;;15.10;99.90;15.40;101102.00;;;;4974408;28;92026;-65
2021/09/20 10:35:25;;;;;;;3.25;2.50;;;15.20;99.90;15.40;101110.00;;;;4974365;28;93095;-65
2021/09/20 10:37:54;;;;;;;2.50;1.95;;;15.20;99.90;15.40;101111.00;;;;4974062;28;92926;-65
2021/09/20 10:40:21;;;;;;;4.60;2.60;;;15.20;99.90;15.40;101109.00;;;;4973653;28;93687;-65
2021/09/20 10:42:56;;;;;;;2.45;1.92;;;15.30;99.90;15.50;101113.00;;;;4974123;28;92885;-66
2021/09/20 10:45:49;;;;;;;5.30;3.05;;;15.40;99.90;15.60;101116.00;;;;4973521;28;93846;-64